sensor_id;sensor_type;location;lat;lon;timestamp;P1;durP1;ratioP1;P2;durP2;ratioP2
22005;SDS011;11167;46.988;15.470;2023-04-28T00:00:04;2.50;;;1.85;;
22005;SDS011;11167;46.988;15.470;2023-04-28T00:02:07;2.45;;;1.55;;
22005;SDS011;11167;46.988;15.470;2023-04-28T00:04:08;2.40;;;1.87;;
22005;SDS011;11167;46.988;15.470;2023-04-28T00:06:10;2.33;;;1.85;;
22005;SDS011;11167;46.988;15.470;2023-04-28T00:08:12;2.72;;;1.77;;
22005;SDS011;11167;46.988;15.470;2023-04-28T00:10:13;2.50;;;1.80;;
22005;SDS011;11167;46.988;15.470;2023-04-28T00:14:37;3.00;;;2.00;;
22005;SDS011;11167;46.988;15.470;2023-04-28T00:16:38;2.55;;;1.80;;
22005;SDS011;11167;46.988;15.470;2023-04-28T00:18:41;2.80;;;1.70;;
22005;SDS011;11167;46.988;15.470;2023-04-28T00:20:42;2.75;;;1.92;;
22005;SDS011;11167;46.988;15.470;2023-04-28T00:22:43;2.40;;;1.70;;
22005;SDS011;11167;46.988;15.470;2023-04-28T00:24:44;2.58;;;1.70;;
22005;SDS011;11167;46.988;15.470;2023-04-28T00:26:46;1.95;;;1.80;;
22005;SDS011;11167;46.988;15.470;2023-04-28T00:28:47;2.02;;;1.82;;
22005;SDS011;11167;46.988;15.470;2023-04-28T00:30:48;1.67;;;1.57;;
22005;SDS011;11167;46.988;15.470;2023-04-28T00:32:49;2.37;;;1.82;;
22005;SDS011;11167;46.988;15.470;2023-04-28T00:34:50;1.75;;;1.50;;
22005;SDS011;11167;46.988;15.470;2023-04-28T00:36:52;2.10;;;1.65;;
22005;SDS011;11167;46.988;15.470;2023-04-28T00:38:53;2.40;;;1.80;;
22005;SDS011;11167;46.988;15.470;2023-04-28T00:40:55;2.58;;;1.85;;
22005;SDS011;11167;46.988;15.470;2023-04-28T00:42:56;1.98;;;1.50;;
22005;SDS011;11167;46.988;15.470;2023-04-28T00:44:57;2.65;;;1.82;;
22005;SDS011;11167;46.988;15.470;2023-04-28T00:47:00;2.05;;;1.67;;
22005;SDS011;11167;46.988;15.470;2023-04-28T00:49:02;2.77;;;1.90;;
22005;SDS011;11167;46.988;15.470;2023-04-28T00:51:04;2.40;;;1.77;;
22005;SDS011;11167;46.988;15.470;2023-04-28T00:53:06;1.92;;;1.70;;
22005;SDS011;11167;46.988;15.470;2023-04-28T00:55:08;3.12;;;2.00;;
22005;SDS011;11167;46.988;15.470;2023-04-28T00:57:09;2.75;;;1.82;;
22005;SDS011;11167;46.988;15.470;2023-04-28T00:59:10;2.77;;;2.10;;
22005;SDS011;11167;46.988;15.470;2023-04-28T01:01:12;2.87;;;1.98;;
22005;SDS011;11167;46.988;15.470;2023-04-28T01:03:12;3.72;;;1.80;;
22005;SDS011;11167;46.988;15.470;2023-04-28T01:05:14;2.08;;;1.70;;
22005;SDS011;11167;46.988;15.470;2023-04-28T01:07:16;3.25;;;2.20;;
22005;SDS011;11167;46.988;15.470;2023-04-28T01:09:17;2.47;;;1.80;;
22005;SDS011;11167;46.988;15.470;2023-04-28T01:11:18;2.00;;;1.67;;
22005;SDS011;11167;46.988;15.470;2023-04-28T01:13:19;2.33;;;1.70;;
22005;SDS011;11167;46.988;15.470;2023-04-28T01:15:21;2.35;;;1.85;;
22005;SDS011;11167;46.988;15.470;2023-04-28T01:17:22;3.17;;;2.02;;
22005;SDS011;11167;46.988;15.470;2023-04-28T01:19:23;2.60;;;1.87;;
22005;SDS011;11167;46.988;15.470;2023-04-28T01:21:25;2.55;;;2.00;;
22005;SDS011;11167;46.988;15.470;2023-04-28T01:23:29;2.27;;;1.67;;
22005;SDS011;11167;46.988;15.470;2023-04-28T01:25:30;2.25;;;1.90;;
22005;SDS011;11167;46.988;15.470;2023-04-28T01:27:31;3.00;;;1.90;;
22005;SDS011;11167;46.988;15.470;2023-04-28T01:29:32;2.83;;;2.00;;
22005;SDS011;11167;46.988;15.470;2023-04-28T01:31:33;3.55;;;2.20;;
22005;SDS011;11167;46.988;15.470;2023-04-28T01:33:34;1.90;;;1.62;;
22005;SDS011;11167;46.988;15.470;2023-04-28T01:35:36;4.28;;;2.25;;
22005;SDS011;11167;46.988;15.470;2023-04-28T01:37:37;4.25;;;1.67;;
22005;SDS011;11167;46.988;15.470;2023-04-28T01:39:38;2.80;;;2.00;;
22005;SDS011;11167;46.988;15.470;2023-04-28T01:41:39;3.37;;;2.20;;
22005;SDS011;11167;46.988;15.470;2023-04-28T01:43:40;2.95;;;1.95;;
22005;SDS011;11167;46.988;15.470;2023-04-28T01:45:43;2.40;;;1.82;;
22005;SDS011;11167;46.988;15.470;2023-04-28T01:47:45;1.92;;;1.70;;
22005;SDS011;11167;46.988;15.470;2023-04-28T01:49:47;4.00;;;1.75;;
22005;SDS011;11167;46.988;15.470;2023-04-28T01:51:49;2.35;;;1.90;;
22005;SDS011;11167;46.988;15.470;2023-04-28T01:53:50;2.60;;;2.27;;
22005;SDS011;11167;46.988;15.470;2023-04-28T01:55:52;2.15;;;1.80;;
22005;SDS011;11167;46.988;15.470;2023-04-28T01:57:53;2.58;;;2.08;;
22005;SDS011;11167;46.988;15.470;2023-04-28T01:59:54;4.90;;;2.00;;
22005;SDS011;11167;46.988;15.470;2023-04-28T02:01:55;3.10;;;2.20;;
22005;SDS011;11167;46.988;15.470;2023-04-28T02:03:56;2.25;;;1.90;;
22005;SDS011;11167;46.988;15.470;2023-04-28T02:05:57;3.22;;;2.17;;
22005;SDS011;11167;46.988;15.470;2023-04-28T02:07:58;2.60;;;2.00;;
22005;SDS011;11167;46.988;15.470;2023-04-28T02:09:59;2.58;;;1.82;;
22005;SDS011;11167;46.988;15.470;2023-04-28T02:12:00;3.02;;;1.70;;
22005;SDS011;11167;46.988;15.470;2023-04-28T02:14:01;2.67;;;1.82;;
22005;SDS011;11167;46.988;15.470;2023-04-28T02:16:03;2.98;;;2.00;;
22005;SDS011;11167;46.988;15.470;2023-04-28T02:18:05;2.17;;;1.55;;
22005;SDS011;11167;46.988;15.470;2023-04-28T02:20:07;2.22;;;1.95;;
22005;SDS011;11167;46.988;15.470;2023-04-28T02:22:09;3.47;;;2.20;;
22005;SDS011;11167;46.988;15.470;2023-04-28T02:24:10;3.85;;;1.70;;
22005;SDS011;11167;46.988;15.470;2023-04-28T02:26:11;2.12;;;1.85;;
22005;SDS011;11167;46.988;15.470;2023-04-28T02:28:12;3.37;;;2.00;;
22005;SDS011;11167;46.988;15.470;2023-04-28T02:30:13;2.70;;;2.10;;
22005;SDS011;11167;46.988;15.470;2023-04-28T02:34:20;2.80;;;1.80;;
22005;SDS011;11167;46.988;15.470;2023-04-28T02:36:21;2.90;;;1.98;;
22005;SDS011;11167;46.988;15.470;2023-04-28T02:38:22;2.12;;;1.70;;
22005;SDS011;11167;46.988;15.470;2023-04-28T02:40:23;2.83;;;1.85;;
22005;SDS011;11167;46.988;15.470;2023-04-28T02:42:24;2.15;;;1.95;;
22005;SDS011;11167;46.988;15.470;2023-04-28T02:44:25;3.95;;;1.90;;
22005;SDS011;11167;46.988;15.470;2023-04-28T02:46:26;2.47;;;1.62;;
22005;SDS011;11167;46.988;15.470;2023-04-28T02:48:28;2.10;;;1.90;;
22005;SDS011;11167;46.988;15.470;2023-04-28T02:50:29;2.98;;;2.17;;
22005;SDS011;11167;46.988;15.470;2023-04-28T02:52:30;1.90;;;1.62;;
22005;SDS011;11167;46.988;15.470;2023-04-28T02:54:31;3.55;;;2.10;;
22005;SDS011;11167;46.988;15.470;2023-04-28T02:56:34;3.85;;;1.90;;
22005;SDS011;11167;46.988;15.470;2023-04-28T02:58:36;2.33;;;1.92;;
22005;SDS011;11167;46.988;15.470;2023-04-28T03:00:37;3.20;;;2.22;;
22005;SDS011;11167;46.988;15.470;2023-04-28T03:02:41;2.35;;;2.02;;
22005;SDS011;11167;46.988;15.470;2023-04-28T03:04:42;2.53;;;2.27;;
22005;SDS011;11167;46.988;15.470;2023-04-28T03:06:43;2.98;;;2.02;;
22005;SDS011;11167;46.988;15.470;2023-04-28T03:08:44;2.47;;;1.95;;
22005;SDS011;11167;46.988;15.470;2023-04-28T03:10:45;2.72;;;2.10;;
22005;SDS011;11167;46.988;15.470;2023-04-28T03:12:46;2.22;;;1.92;;
22005;SDS011;11167;46.988;15.470;2023-04-28T03:14:47;2.70;;;2.22;;
22005;SDS011;11167;46.988;15.470;2023-04-28T03:16:49;3.17;;;2.00;;
22005;SDS011;11167;46.988;15.470;2023-04-28T03:18:51;3.00;;;2.02;;
22005;SDS011;11167;46.988;15.470;2023-04-28T03:20:52;3.17;;;2.02;;
22005;SDS011;11167;46.988;15.470;2023-04-28T03:22:53;3.40;;;2.25;;
22005;SDS011;11167;46.988;15.470;2023-04-28T03:24:55;3.50;;;1.80;;
22005;SDS011;11167;46.988;15.470;2023-04-28T03:26:56;2.55;;;2.10;;
22005;SDS011;11167;46.988;15.470;2023-04-28T03:28:57;2.55;;;2.10;;
22005;SDS011;11167;46.988;15.470;2023-04-28T03:30:58;2.95;;;2.05;;
22005;SDS011;11167;46.988;15.470;2023-04-28T03:33:00;2.27;;;1.95;;
22005;SDS011;11167;46.988;15.470;2023-04-28T03:35:01;2.05;;;1.70;;
22005;SDS011;11167;46.988;15.470;2023-04-28T03:37:02;2.40;;;1.85;;
22005;SDS011;11167;46.988;15.470;2023-04-28T03:39:04;2.30;;;2.10;;
22005;SDS011;11167;46.988;15.470;2023-04-28T03:41:05;2.67;;;2.00;;
22005;SDS011;11167;46.988;15.470;2023-04-28T03:43:09;2.62;;;2.10;;
22005;SDS011;11167;46.988;15.470;2023-04-28T03:45:16;3.45;;;2.17;;
22005;SDS011;11167;46.988;15.470;2023-04-28T03:47:17;2.10;;;1.70;;
22005;SDS011;11167;46.988;15.470;2023-04-28T03:49:18;2.90;;;2.12;;
22005;SDS011;11167;46.988;15.470;2023-04-28T03:51:19;2.83;;;2.05;;
22005;SDS011;11167;46.988;15.470;2023-04-28T03:53:20;2.67;;;2.10;;
22005;SDS011;11167;46.988;15.470;2023-04-28T03:55:21;2.05;;;1.80;;
22005;SDS011;11167;46.988;15.470;2023-04-28T03:57:23;3.00;;;2.02;;
22005;SDS011;11167;46.988;15.470;2023-04-28T03:59:25;3.22;;;2.00;;
22005;SDS011;11167;46.988;15.470;2023-04-28T04:01:27;2.92;;;2.10;;
22005;SDS011;11167;46.988;15.470;2023-04-28T04:03:28;3.42;;;2.00;;
22005;SDS011;11167;46.988;15.470;2023-04-28T04:05:29;3.00;;;2.30;;
22005;SDS011;11167;46.988;15.470;2023-04-28T04:07:30;2.10;;;1.87;;
22005;SDS011;11167;46.988;15.470;2023-04-28T04:09:31;2.65;;;2.10;;
22005;SDS011;11167;46.988;15.470;2023-04-28T04:11:32;3.83;;;2.08;;
22005;SDS011;11167;46.988;15.470;2023-04-28T04:13:33;4.00;;;2.00;;
22005;SDS011;11167;46.988;15.470;2023-04-28T04:15:35;2.98;;;2.17;;
22005;SDS011;11167;46.988;15.470;2023-04-28T04:17:36;3.00;;;1.80;;
22005;SDS011;11167;46.988;15.470;2023-04-28T04:19:37;3.98;;;2.20;;
22005;SDS011;11167;46.988;15.470;2023-04-28T04:21:38;3.60;;;2.05;;
22005;SDS011;11167;46.988;15.470;2023-04-28T04:23:39;2.80;;;2.22;;
22005;SDS011;11167;46.988;15.470;2023-04-28T04:25:40;4.12;;;2.20;;
22005;SDS011;11167;46.988;15.470;2023-04-28T04:27:42;3.40;;;2.17;;
22005;SDS011;11167;46.988;15.470;2023-04-28T04:29:43;3.00;;;2.25;;
22005;SDS011;11167;46.988;15.470;2023-04-28T04:31:44;2.85;;;2.20;;
22005;SDS011;11167;46.988;15.470;2023-04-28T04:33:45;3.08;;;2.05;;
22005;SDS011;11167;46.988;15.470;2023-04-28T04:35:47;3.98;;;2.20;;
22005;SDS011;11167;46.988;15.470;2023-04-28T04:37:48;3.15;;;2.27;;
22005;SDS011;11167;46.988;15.470;2023-04-28T04:39:49;3.72;;;2.20;;
22005;SDS011;11167;46.988;15.470;2023-04-28T04:41:50;3.45;;;2.30;;
22005;SDS011;11167;46.988;15.470;2023-04-28T04:43:52;3.47;;;2.22;;
22005;SDS011;11167;46.988;15.470;2023-04-28T04:45:53;3.52;;;2.50;;
22005;SDS011;11167;46.988;15.470;2023-04-28T04:47:54;6.35;;;2.67;;
22005;SDS011;11167;46.988;15.470;2023-04-28T04:49:56;3.08;;;2.40;;
22005;SDS011;11167;46.988;15.470;2023-04-28T04:51:57;6.22;;;2.47;;
22005;SDS011;11167;46.988;15.470;2023-04-28T04:53:58;4.00;;;2.15;;
22005;SDS011;11167;46.988;15.470;2023-04-28T04:56:00;5.83;;;2.55;;
22005;SDS011;11167;46.988;15.470;2023-04-28T04:58:01;3.70;;;2.45;;
22005;SDS011;11167;46.988;15.470;2023-04-28T05:00:03;3.65;;;2.60;;
22005;SDS011;11167;46.988;15.470;2023-04-28T05:02:05;3.85;;;2.60;;
22005;SDS011;11167;46.988;15.470;2023-04-28T05:04:06;3.65;;;2.17;;
22005;SDS011;11167;46.988;15.470;2023-04-28T05:06:07;3.92;;;2.42;;
22005;SDS011;11167;46.988;15.470;2023-04-28T05:08:08;3.50;;;2.58;;
22005;SDS011;11167;46.988;15.470;2023-04-28T05:10:10;3.85;;;2.50;;
22005;SDS011;11167;46.988;15.470;2023-04-28T05:12:11;3.77;;;2.60;;
22005;SDS011;11167;46.988;15.470;2023-04-28T05:14:12;2.67;;;2.12;;
22005;SDS011;11167;46.988;15.470;2023-04-28T05:16:13;4.58;;;2.40;;
22005;SDS011;11167;46.988;15.470;2023-04-28T05:18:14;2.92;;;2.52;;
22005;SDS011;11167;46.988;15.470;2023-04-28T05:20:16;4.53;;;2.75;;
22005;SDS011;11167;46.988;15.470;2023-04-28T05:22:17;4.00;;;2.70;;
22005;SDS011;11167;46.988;15.470;2023-04-28T05:24:19;3.42;;;2.25;;
22005;SDS011;11167;46.988;15.470;2023-04-28T05:26:23;2.62;;;2.20;;
22005;SDS011;11167;46.988;15.470;2023-04-28T05:28:24;3.02;;;2.55;;
22005;SDS011;11167;46.988;15.470;2023-04-28T05:30:25;4.12;;;2.87;;
22005;SDS011;11167;46.988;15.470;2023-04-28T05:32:26;3.85;;;2.42;;
22005;SDS011;11167;46.988;15.470;2023-04-28T05:34:27;3.17;;;2.40;;
22005;SDS011;11167;46.988;15.470;2023-04-28T05:36:28;3.12;;;2.80;;
22005;SDS011;11167;46.988;15.470;2023-04-28T05:38:29;4.22;;;2.98;;
22005;SDS011;11167;46.988;15.470;2023-04-28T05:40:32;3.92;;;3.10;;
22005;SDS011;11167;46.988;15.470;2023-04-28T05:42:33;4.22;;;3.27;;
22005;SDS011;11167;46.988;15.470;2023-04-28T05:44:34;4.22;;;3.52;;
22005;SDS011;11167;46.988;15.470;2023-04-28T05:46:35;5.12;;;3.65;;
22005;SDS011;11167;46.988;15.470;2023-04-28T05:48:36;4.97;;;3.72;;
22005;SDS011;11167;46.988;15.470;2023-04-28T05:50:37;4.87;;;3.77;;
22005;SDS011;11167;46.988;15.470;2023-04-28T05:52:39;5.65;;;3.40;;
22005;SDS011;11167;46.988;15.470;2023-04-28T05:54:41;3.83;;;3.50;;
22005;SDS011;11167;46.988;15.470;2023-04-28T05:56:42;5.75;;;3.92;;
22005;SDS011;11167;46.988;15.470;2023-04-28T05:58:43;4.42;;;3.85;;
22005;SDS011;11167;46.988;15.470;2023-04-28T06:00:44;4.22;;;3.35;;
22005;SDS011;11167;46.988;15.470;2023-04-28T06:02:45;4.83;;;3.55;;
22005;SDS011;11167;46.988;15.470;2023-04-28T06:04:46;4.55;;;3.40;;
22005;SDS011;11167;46.988;15.470;2023-04-28T06:06:47;4.37;;;3.30;;
22005;SDS011;11167;46.988;15.470;2023-04-28T06:08:48;3.90;;;3.17;;
22005;SDS011;11167;46.988;15.470;2023-04-28T06:10:49;4.37;;;3.25;;
22005;SDS011;11167;46.988;15.470;2023-04-28T06:12:50;4.83;;;3.40;;
22005;SDS011;11167;46.988;15.470;2023-04-28T06:14:51;5.22;;;3.17;;
22005;SDS011;11167;46.988;15.470;2023-04-28T06:16:56;3.47;;;2.75;;
22005;SDS011;11167;46.988;15.470;2023-04-28T06:18:58;6.40;;;3.27;;
22005;SDS011;11167;46.988;15.470;2023-04-28T06:20:59;4.17;;;3.10;;
22005;SDS011;11167;46.988;15.470;2023-04-28T06:23:00;3.37;;;3.08;;
22005;SDS011;11167;46.988;15.470;2023-04-28T06:27:07;6.12;;;3.33;;
22005;SDS011;11167;46.988;15.470;2023-04-28T06:29:08;4.65;;;2.80;;
22005;SDS011;11167;46.988;15.470;2023-04-28T06:31:09;3.60;;;2.95;;
22005;SDS011;11167;46.988;15.470;2023-04-28T06:33:10;3.67;;;3.05;;
22005;SDS011;11167;46.988;15.470;2023-04-28T06:35:11;4.30;;;2.87;;
22005;SDS011;11167;46.988;15.470;2023-04-28T06:37:12;4.90;;;3.30;;
22005;SDS011;11167;46.988;15.470;2023-04-28T06:39:13;4.50;;;2.92;;
22005;SDS011;11167;46.988;15.470;2023-04-28T06:41:14;4.78;;;3.10;;
22005;SDS011;11167;46.988;15.470;2023-04-28T06:43:17;3.65;;;2.70;;
22005;SDS011;11167;46.988;15.470;2023-04-28T06:45:18;4.55;;;3.05;;
22005;SDS011;11167;46.988;15.470;2023-04-28T06:47:19;6.80;;;2.80;;
22005;SDS011;11167;46.988;15.470;2023-04-28T06:49:20;4.55;;;2.95;;
22005;SDS011;11167;46.988;15.470;2023-04-28T06:51:21;4.75;;;3.37;;
22005;SDS011;11167;46.988;15.470;2023-04-28T06:53:22;3.80;;;3.05;;
22005;SDS011;11167;46.988;15.470;2023-04-28T06:55:23;4.60;;;2.92;;
22005;SDS011;11167;46.988;15.470;2023-04-28T06:57:25;4.28;;;3.02;;
22005;SDS011;11167;46.988;15.470;2023-04-28T06:59:26;4.20;;;3.12;;
22005;SDS011;11167;46.988;15.470;2023-04-28T07:01:27;3.27;;;2.80;;
22005;SDS011;11167;46.988;15.470;2023-04-28T07:03:28;4.53;;;2.95;;
22005;SDS011;11167;46.988;15.470;2023-04-28T07:05:29;4.05;;;3.30;;
22005;SDS011;11167;46.988;15.470;2023-04-28T07:07:33;3.52;;;3.20;;
22005;SDS011;11167;46.988;15.470;2023-04-28T07:09:34;3.58;;;2.77;;
22005;SDS011;11167;46.988;15.470;2023-04-28T07:11:36;5.67;;;3.02;;
22005;SDS011;11167;46.988;15.470;2023-04-28T07:13:37;4.62;;;3.50;;
22005;SDS011;11167;46.988;15.470;2023-04-28T07:15:38;4.85;;;3.20;;
22005;SDS011;11167;46.988;15.470;2023-04-28T07:17:39;4.25;;;2.87;;
22005;SDS011;11167;46.988;15.470;2023-04-28T07:19:40;4.87;;;3.20;;
22005;SDS011;11167;46.988;15.470;2023-04-28T07:21:41;3.87;;;2.87;;
22005;SDS011;11167;46.988;15.470;2023-04-28T07:23:42;4.12;;;3.27;;
22005;SDS011;11167;46.988;15.470;2023-04-28T07:25:43;4.50;;;3.30;;
22005;SDS011;11167;46.988;15.470;2023-04-28T07:27:45;4.42;;;3.00;;
22005;SDS011;11167;46.988;15.470;2023-04-28T07:29:46;5.17;;;3.15;;
22005;SDS011;11167;46.988;15.470;2023-04-28T07:31:47;5.08;;;3.15;;
22005;SDS011;11167;46.988;15.470;2023-04-28T07:33:48;3.42;;;2.90;;
22005;SDS011;11167;46.988;15.470;2023-04-28T07:35:49;4.03;;;3.05;;
22005;SDS011;11167;46.988;15.470;2023-04-28T07:37:52;4.15;;;2.85;;
22005;SDS011;11167;46.988;15.470;2023-04-28T07:39:54;3.85;;;2.80;;
22005;SDS011;11167;46.988;15.470;2023-04-28T07:41:55;4.28;;;2.80;;
22005;SDS011;11167;46.988;15.470;2023-04-28T07:43:58;4.97;;;3.20;;
22005;SDS011;11167;46.988;15.470;2023-04-28T07:45:59;4.00;;;2.77;;
22005;SDS011;11167;46.988;15.470;2023-04-28T07:48:00;3.40;;;2.47;;
22005;SDS011;11167;46.988;15.470;2023-04-28T07:50:01;5.05;;;2.67;;
22005;SDS011;11167;46.988;15.470;2023-04-28T07:52:04;3.87;;;2.80;;
22005;SDS011;11167;46.988;15.470;2023-04-28T07:54:05;5.60;;;2.87;;
22005;SDS011;11167;46.988;15.470;2023-04-28T07:56:06;4.03;;;2.58;;
22005;SDS011;11167;46.988;15.470;2023-04-28T07:58:09;3.87;;;2.40;;
22005;SDS011;11167;46.988;15.470;2023-04-28T08:00:10;3.65;;;2.50;;
22005;SDS011;11167;46.988;15.470;2023-04-28T08:02:13;4.08;;;2.52;;
22005;SDS011;11167;46.988;15.470;2023-04-28T08:04:15;4.50;;;2.35;;
22005;SDS011;11167;46.988;15.470;2023-04-28T08:06:16;3.52;;;2.75;;
22005;SDS011;11167;46.988;15.470;2023-04-28T08:08:17;3.60;;;2.70;;
22005;SDS011;11167;46.988;15.470;2023-04-28T08:10:18;3.10;;;2.22;;
22005;SDS011;11167;46.988;15.470;2023-04-28T08:12:19;2.47;;;2.12;;
22005;SDS011;11167;46.988;15.470;2023-04-28T08:14:21;2.95;;;2.47;;
22005;SDS011;11167;46.988;15.470;2023-04-28T08:16:23;3.05;;;2.30;;
22005;SDS011;11167;46.988;15.470;2023-04-28T08:18:24;2.75;;;2.22;;
22005;SDS011;11167;46.988;15.470;2023-04-28T08:20:25;2.98;;;2.20;;
22005;SDS011;11167;46.988;15.470;2023-04-28T08:22:27;3.10;;;2.17;;
22005;SDS011;11167;46.988;15.470;2023-04-28T08:24:28;2.17;;;1.98;;
22005;SDS011;11167;46.988;15.470;2023-04-28T08:26:29;3.42;;;2.67;;
22005;SDS011;11167;46.988;15.470;2023-04-28T08:28:31;3.25;;;2.33;;
22005;SDS011;11167;46.988;15.470;2023-04-28T08:30:33;3.72;;;2.52;;
22005;SDS011;11167;46.988;15.470;2023-04-28T08:32:34;2.85;;;2.37;;
22005;SDS011;11167;46.988;15.470;2023-04-28T08:34:36;4.12;;;2.85;;
22005;SDS011;11167;46.988;15.470;2023-04-28T08:36:37;2.50;;;2.30;;
22005;SDS011;11167;46.988;15.470;2023-04-28T08:38:38;3.30;;;2.20;;
22005;SDS011;11167;46.988;15.470;2023-04-28T08:40:39;4.05;;;2.65;;
22005;SDS011;11167;46.988;15.470;2023-04-28T08:42:42;3.25;;;2.30;;
22005;SDS011;11167;46.988;15.470;2023-04-28T08:44:45;2.45;;;2.22;;
22005;SDS011;11167;46.988;15.470;2023-04-28T08:46:48;4.05;;;2.30;;
22005;SDS011;11167;46.988;15.470;2023-04-28T08:48:51;2.60;;;2.30;;
22005;SDS011;11167;46.988;15.470;2023-04-28T08:50:56;4.35;;;2.52;;
22005;SDS011;11167;46.988;15.470;2023-04-28T08:52:57;2.80;;;2.50;;
22005;SDS011;11167;46.988;15.470;2023-04-28T08:55:05;6.42;;;2.58;;
22005;SDS011;11167;46.988;15.470;2023-04-28T08:57:08;3.52;;;2.52;;
22005;SDS011;11167;46.988;15.470;2023-04-28T08:59:10;3.60;;;2.33;;
22005;SDS011;11167;46.988;15.470;2023-04-28T09:01:14;3.15;;;2.30;;
22005;SDS011;11167;46.988;15.470;2023-04-28T09:03:15;5.12;;;2.52;;
22005;SDS011;11167;46.988;15.470;2023-04-28T09:05:16;3.40;;;2.15;;
22005;SDS011;11167;46.988;15.470;2023-04-28T09:07:17;4.05;;;2.30;;
22005;SDS011;11167;46.988;15.470;2023-04-28T09:09:22;2.47;;;2.15;;
22005;SDS011;11167;46.988;15.470;2023-04-28T09:11:25;2.60;;;2.20;;
22005;SDS011;11167;46.988;15.470;2023-04-28T09:13:26;3.35;;;2.25;;
22005;SDS011;11167;46.988;15.470;2023-04-28T09:15:28;3.27;;;2.62;;
22005;SDS011;11167;46.988;15.470;2023-04-28T09:17:47;3.02;;;2.17;;
22005;SDS011;11167;46.988;15.470;2023-04-28T09:19:50;3.05;;;2.10;;
22005;SDS011;11167;46.988;15.470;2023-04-28T09:21:54;3.12;;;2.30;;
22005;SDS011;11167;46.988;15.470;2023-04-28T09:23:56;4.05;;;2.45;;
22005;SDS011;11167;46.988;15.470;2023-04-28T09:28:23;3.47;;;2.47;;
22005;SDS011;11167;46.988;15.470;2023-04-28T09:30:36;3.50;;;2.37;;
22005;SDS011;11167;46.988;15.470;2023-04-28T09:32:40;3.47;;;2.60;;
22005;SDS011;11167;46.988;15.470;2023-04-28T09:34:46;4.45;;;2.85;;
22005;SDS011;11167;46.988;15.470;2023-04-28T09:36:49;3.98;;;2.67;;
22005;SDS011;11167;46.988;15.470;2023-04-28T09:38:50;3.50;;;2.75;;
22005;SDS011;11167;46.988;15.470;2023-04-28T09:40:52;5.28;;;2.83;;
22005;SDS011;11167;46.988;15.470;2023-04-28T09:42:54;3.20;;;2.62;;
22005;SDS011;11167;46.988;15.470;2023-04-28T09:44:57;2.62;;;2.33;;
22005;SDS011;11167;46.988;15.470;2023-04-28T09:46:58;2.55;;;2.35;;
22005;SDS011;11167;46.988;15.470;2023-04-28T09:49:00;4.20;;;2.50;;
22005;SDS011;11167;46.988;15.470;2023-04-28T09:51:02;3.35;;;2.80;;
22005;SDS011;11167;46.988;15.470;2023-04-28T09:53:05;4.03;;;2.60;;
22005;SDS011;11167;46.988;15.470;2023-04-28T09:55:08;2.60;;;2.40;;
22005;SDS011;11167;46.988;15.470;2023-04-28T09:57:11;3.30;;;2.47;;
22005;SDS011;11167;46.988;15.470;2023-04-28T09:59:12;3.25;;;2.87;;
22005;SDS011;11167;46.988;15.470;2023-04-28T10:01:14;3.35;;;2.62;;
22005;SDS011;11167;46.988;15.470;2023-04-28T10:03:15;2.85;;;2.50;;
22005;SDS011;11167;46.988;15.470;2023-04-28T10:05:17;5.35;;;2.60;;
22005;SDS011;11167;46.988;15.470;2023-04-28T10:07:20;3.65;;;2.70;;
22005;SDS011;11167;46.988;15.470;2023-04-28T10:09:21;3.17;;;2.42;;
22005;SDS011;11167;46.988;15.470;2023-04-28T10:11:25;3.55;;;2.62;;
22005;SDS011;11167;46.988;15.470;2023-04-28T10:13:27;3.50;;;2.83;;
22005;SDS011;11167;46.988;15.470;2023-04-28T10:15:29;3.92;;;2.92;;
22005;SDS011;11167;46.988;15.470;2023-04-28T10:17:31;3.65;;;2.60;;
22005;SDS011;11167;46.988;15.470;2023-04-28T10:19:34;3.30;;;2.70;;
22005;SDS011;11167;46.988;15.470;2023-04-28T10:21:42;3.40;;;2.70;;
22005;SDS011;11167;46.988;15.470;2023-04-28T10:24:02;2.95;;;2.65;;
22005;SDS011;11167;46.988;15.470;2023-04-28T10:26:02;3.90;;;2.95;;
22005;SDS011;11167;46.988;15.470;2023-04-28T10:28:05;4.17;;;2.95;;
22005;SDS011;11167;46.988;15.470;2023-04-28T10:34:20;3.45;;;3.00;;
22005;SDS011;11167;46.988;15.470;2023-04-28T10:37:04;3.98;;;2.90;;
22005;SDS011;11167;46.988;15.470;2023-04-28T10:39:07;3.00;;;2.72;;
22005;SDS011;11167;46.988;15.470;2023-04-28T10:41:03;4.03;;;3.25;;
22005;SDS011;11167;46.988;15.470;2023-04-28T10:43:04;3.72;;;2.85;;
22005;SDS011;11167;46.988;15.470;2023-04-28T10:45:07;5.50;;;3.35;;
22005;SDS011;11167;46.988;15.470;2023-04-28T10:47:08;6.17;;;3.10;;
22005;SDS011;11167;46.988;15.470;2023-04-28T10:49:10;3.67;;;2.80;;
22005;SDS011;11167;46.988;15.470;2023-04-28T10:53:19;4.42;;;2.98;;
22005;SDS011;11167;46.988;15.470;2023-04-28T10:55:28;4.58;;;3.05;;
22005;SDS011;11167;46.988;15.470;2023-04-28T10:59:36;6.28;;;3.47;;
22005;SDS011;11167;46.988;15.470;2023-04-28T11:01:37;5.22;;;3.10;;
22005;SDS011;11167;46.988;15.470;2023-04-28T11:07:07;4.20;;;3.00;;
22005;SDS011;11167;46.988;15.470;2023-04-28T11:15:29;4.00;;;2.72;;
22005;SDS011;11167;46.988;15.470;2023-04-28T11:17:38;3.62;;;2.80;;
22005;SDS011;11167;46.988;15.470;2023-04-28T11:19:41;4.05;;;2.85;;
22005;SDS011;11167;46.988;15.470;2023-04-28T11:21:48;4.28;;;2.95;;
22005;SDS011;11167;46.988;15.470;2023-04-28T11:23:49;4.28;;;2.70;;
22005;SDS011;11167;46.988;15.470;2023-04-28T11:25:58;3.58;;;2.65;;
22005;SDS011;11167;46.988;15.470;2023-04-28T11:28:02;3.30;;;2.70;;
22005;SDS011;11167;46.988;15.470;2023-04-28T11:30:18;3.77;;;3.02;;
22005;SDS011;11167;46.988;15.470;2023-04-28T11:32:09;3.05;;;2.55;;
22005;SDS011;11167;46.988;15.470;2023-04-28T11:34:10;4.15;;;2.83;;
22005;SDS011;11167;46.988;15.470;2023-04-28T11:36:30;4.15;;;3.10;;
22005;SDS011;11167;46.988;15.470;2023-04-28T11:38:24;3.30;;;2.80;;
22005;SDS011;11167;46.988;15.470;2023-04-28T11:40:25;3.60;;;2.95;;
22005;SDS011;11167;46.988;15.470;2023-04-28T11:42:26;4.28;;;3.20;;
22005;SDS011;11167;46.988;15.470;2023-04-28T11:44:29;2.98;;;2.50;;
22005;SDS011;11167;46.988;15.470;2023-04-28T11:46:31;4.15;;;2.65;;
22005;SDS011;11167;46.988;15.470;2023-04-28T11:48:35;4.42;;;3.17;;
22005;SDS011;11167;46.988;15.470;2023-04-28T11:50:36;3.75;;;2.90;;
22005;SDS011;11167;46.988;15.470;2023-04-28T11:52:47;3.98;;;2.90;;
22005;SDS011;11167;46.988;15.470;2023-04-28T11:54:53;4.47;;;2.92;;
22005;SDS011;11167;46.988;15.470;2023-04-28T11:56:55;4.72;;;3.10;;
22005;SDS011;11167;46.988;15.470;2023-04-28T11:59:04;4.40;;;2.70;;
22005;SDS011;11167;46.988;15.470;2023-04-28T12:01:09;4.25;;;2.83;;
22005;SDS011;11167;46.988;15.470;2023-04-28T12:03:11;4.40;;;3.30;;
22005;SDS011;11167;46.988;15.470;2023-04-28T12:05:13;4.28;;;2.83;;
22005;SDS011;11167;46.988;15.470;2023-04-28T12:07:14;3.45;;;2.98;;
22005;SDS011;11167;46.988;15.470;2023-04-28T12:09:17;3.40;;;2.58;;
22005;SDS011;11167;46.988;15.470;2023-04-28T12:11:23;3.25;;;2.80;;
22005;SDS011;11167;46.988;15.470;2023-04-28T12:13:25;3.50;;;3.02;;
22005;SDS011;11167;46.988;15.470;2023-04-28T12:15:38;4.50;;;2.83;;
22005;SDS011;11167;46.988;15.470;2023-04-28T12:19:44;4.58;;;3.35;;
22005;SDS011;11167;46.988;15.470;2023-04-28T12:22:07;4.05;;;2.92;;
22005;SDS011;11167;46.988;15.470;2023-04-28T12:24:18;5.37;;;3.15;;
22005;SDS011;11167;46.988;15.470;2023-04-28T12:28:36;4.35;;;3.00;;
22005;SDS011;11167;46.988;15.470;2023-04-28T12:32:43;4.90;;;2.98;;
22005;SDS011;11167;46.988;15.470;2023-04-28T12:34:44;3.55;;;2.77;;
22005;SDS011;11167;46.988;15.470;2023-04-28T12:36:46;3.85;;;2.80;;